Sparwood, Canada
Current Conditions -  °F | °C
As of 5:00 PM on Wednesday 26 Nov 2014 (Local Time) from CYXC Reporting Station
Light Snow Light Snow  
Wind Chill: 25°   Ceiling: 300
Heat Index: 30°   Visibility: 1mi
Dew Point: 30°   Wind: 5mph
Humidity: 100%   Direction: 310°NW
Pressure: 30.06"   Gusts: NA
Location:  49.72°N, 114.89°W
Report Text: CYXC 270000Z 31004KT 1SM -SN BR BKN003 OVC020 M01/M01 A3006 RMK SN3SF4SC1 /S02/ SLP215
Loading
Personal Weather Stations






























Interactive Weather Map New forecast layout! Learn more

10-Day Weather Forecast

Advertisements
Track Severe Weather on mobile